Time;durP1;ratioP1;P1;durP2;ratioP2;P2;SDS_P1;SDS_P2;PMS_P1;PMS_P2;Temp;Humidity;BMP_temperature;BMP_pressure;BME280_temperature;BME280_humidity;BME280_pressure;Samples;Min_cycle;Max_cycle;Signal;HPM_P1;HPM_P2
2023/02/27 00:00:41;;;;;;;5.03;4.47;;;2.60;99.90;;;;;;5021579;28;20931;-79
2023/02/27 00:03:06;;;;;;;4.40;4.00;;;2.60;99.90;;;;;;5016868;28;20194;-78
2023/02/27 00:05:32;;;;;;;4.80;4.10;;;2.70;99.90;;;;;;5019664;28;20190;-78
2023/02/27 00:07:58;;;;;;;4.50;4.10;;;2.60;99.90;;;;;;5031886;28;20233;-78
2023/02/27 00:10:23;;;;;;;6.13;4.70;;;2.70;99.90;;;;;;5013936;28;20204;-78
2023/02/27 00:12:49;;;;;;;5.83;4.90;;;2.50;99.90;;;;;;5032454;28;20186;-78
2023/02/27 00:15:17;;;;;;;8.20;4.33;;;2.80;99.90;;;;;;5025020;28;20583;-78
2023/02/27 00:17:44;;;;;;;6.20;4.73;;;2.70;99.90;;;;;;5031291;28;20708;-78
2023/02/27 00:20:12;;;;;;;7.30;4.90;;;2.80;99.90;;;;;;5031015;28;20572;-78
2023/02/27 00:22:39;;;;;;;4.87;4.37;;;2.60;99.90;;;;;;5027528;28;20423;-78
2023/02/27 00:25:06;;;;;;;4.77;4.37;;;2.70;99.90;;;;;;5030976;28;20429;-78
2023/02/27 00:27:33;;;;;;;6.27;5.37;;;2.60;99.90;;;;;;5019443;28;20479;-78
2023/02/27 00:29:59;;;;;;;5.43;4.93;;;2.60;99.90;;;;;;5022036;28;20437;-77
2023/02/27 00:32:25;;;;;;;6.00;4.33;;;2.50;99.90;;;;;;5032077;28;20420;-78
2023/02/27 00:34:50;;;;;;;6.33;4.87;;;2.60;99.90;;;;;;5019069;28;20816;-77
2023/02/27 00:37:16;;;;;;;4.70;4.20;;;2.60;99.90;;;;;;5003942;28;20202;-79
2023/02/27 00:39:42;;;;;;;4.97;4.50;;;2.40;99.90;;;;;;5030436;28;20189;-78
2023/02/27 00:42:07;;;;;;;5.10;4.60;;;2.50;99.90;;;;;;5030795;28;20840;-77
2023/02/27 00:44:33;;;;;;;6.00;4.43;;;2.70;99.90;;;;;;5020687;28;20190;-78
2023/02/27 00:46:59;;;;;;;6.37;5.30;;;2.40;99.90;;;;;;5030992;28;20546;-78
2023/02/27 00:49:25;;;;;;;5.97;4.20;;;2.60;99.90;;;;;;5030983;28;20210;-78
2023/02/27 00:51:51;;;;;;;5.80;5.00;;;2.40;99.90;;;;;;5010956;28;20179;-78
2023/02/27 00:54:16;;;;;;;7.17;4.60;;;2.40;99.90;;;;;;5030659;28;20567;-78
2023/02/27 00:56:42;;;;;;;6.03;4.30;;;2.50;99.90;;;;;;5030784;28;20539;-78
2023/02/27 00:59:08;;;;;;;5.33;4.83;;;2.40;99.90;;;;;;5020605;28;20186;-78
2023/02/27 01:01:34;;;;;;;5.97;4.77;;;2.40;99.90;;;;;;5030745;28;20261;-78
2023/02/27 01:04:00;;;;;;;5.63;4.80;;;2.50;99.90;;;;;;5022222;28;20221;-78
2023/02/27 01:06:26;;;;;;;6.80;5.00;;;2.50;99.90;;;;;;5024055;28;20461;-78
2023/02/27 01:08:51;;;;;;;5.63;4.50;;;2.40;99.90;;;;;;5030437;28;20755;-78
2023/02/27 01:11:17;;;;;;;5.90;5.00;;;2.40;99.90;;;;;;5030607;28;20186;-78
2023/02/27 01:13:45;;;;;;;5.27;4.70;;;2.20;99.90;;;;;;5030378;28;20220;-78
2023/02/27 01:16:11;;;;;;;5.10;4.60;;;2.30;99.90;;;;;;5030519;28;20449;-78
2023/02/27 01:18:37;;;;;;;5.70;4.93;;;2.40;99.90;;;;;;5030326;28;20478;-78
2023/02/27 01:21:03;;;;;;;7.10;5.60;;;2.30;99.90;;;;;;5030527;28;20425;-77
2023/02/27 01:23:28;;;;;;;5.97;4.40;;;2.30;99.90;;;;;;5030024;28;20913;-78
2023/02/27 01:25:54;;;;;;;6.13;5.30;;;2.00;99.90;;;;;;5030260;28;20849;-78
2023/02/27 01:28:20;;;;;;;6.87;4.70;;;2.30;99.90;;;;;;5006593;28;20202;-78
2023/02/27 01:30:46;;;;;;;6.60;4.60;;;2.30;99.90;;;;;;5020547;28;20222;-78
2023/02/27 01:33:12;;;;;;;7.10;5.10;;;2.30;99.90;;;;;;5030202;28;20460;-78
2023/02/27 01:35:38;;;;;;;6.20;5.60;;;2.10;99.90;;;;;;5028894;28;20822;-78
2023/02/27 01:38:03;;;;;;;5.77;5.27;;;2.30;99.90;;;;;;5017489;28;20742;-77
2023/02/27 01:40:33;;;;;;;5.60;5.10;;;2.00;99.90;;;;;;5017650;28;20655;-78
2023/02/27 01:42:59;;;;;;;6.67;5.27;;;2.00;99.90;;;;;;5029621;28;20228;-78
2023/02/27 01:45:31;;;;;;;6.80;5.67;;;2.10;99.90;;;;;;5017459;28;20890;-78
2023/02/27 01:48:05;;;;;;;5.60;5.10;;;2.30;99.90;;;;;;5003489;28;20214;-78
2023/02/27 01:50:32;;;;;;;6.77;5.20;;;1.90;99.90;;;;;;5029566;28;20461;-79
2023/02/27 01:53:00;;;;;;;6.80;5.17;;;2.10;99.90;;;;;;5012198;28;20470;-78
2023/02/27 01:55:28;;;;;;;7.60;5.30;;;1.90;99.90;;;;;;5029642;28;20414;-78
2023/02/27 01:57:54;;;;;;;6.07;5.47;;;2.00;99.90;;;;;;5020214;28;20800;-78
2023/02/27 02:00:20;;;;;;;7.20;5.57;;;1.90;99.90;;;;;;5020049;28;20504;-79
2023/02/27 02:03:06;;;;;;;6.87;5.10;;;1.90;99.90;;;;;;5029289;28;20432;-78
2023/02/27 02:05:32;;;;;;;5.60;5.00;;;2.00;99.90;;;;;;5029702;28;20417;-78
2023/02/27 02:07:58;;;;;;;6.93;4.90;;;1.90;99.90;;;;;;5011708;28;20441;-78
2023/02/27 02:10:25;;;;;;;6.70;5.37;;;2.00;99.90;;;;;;5028353;28;20409;-78
2023/02/27 02:12:51;;;;;;;6.50;5.50;;;1.90;99.90;;;;;;5029619;28;20459;-78
2023/02/27 02:15:18;;;;;;;6.07;4.87;;;1.80;99.90;;;;;;5011988;28;20413;-78
2023/02/27 02:18:09;;;;;;;7.43;5.50;;;1.60;99.90;;;;;;5011518;28;20436;-77
2023/02/27 02:21:08;;;;;;;6.03;5.43;;;1.80;99.90;;;;;;5029471;28;20766;-78
2023/02/27 02:24:18;;;;;;;5.80;5.20;;;1.70;99.90;;;;;;5011732;28;20765;-78
2023/02/27 02:27:25;;;;;;;6.83;4.93;;;1.80;99.90;;;;;;4957642;28;20476;-77
2023/02/27 02:30:29;;;;;;;5.37;4.87;;;1.80;99.90;;;;;;4990106;28;20414;-77
2023/02/27 02:33:15;;;;;;;7.13;5.37;;;1.50;99.90;;;;;;5003512;28;20416;-78
2023/02/27 02:36:11;;;;;;;5.50;5.00;;;1.70;99.90;;;;;;5011001;28;20417;-77
2023/02/27 02:38:40;;;;;;;5.57;4.70;;;1.80;99.90;;;;;;5045100;28;20489;-78
2023/02/27 02:41:34;;;;;;;7.10;5.30;;;1.70;99.90;;;;;;5048872;28;20413;-78
2023/02/27 02:44:02;;;;;;;9.07;5.70;;;1.90;99.90;;;;;;5048990;28;20793;-77
2023/02/27 02:46:40;;;;;;;5.50;5.00;;;1.70;99.90;;;;;;5048821;28;20827;-78
2023/02/27 02:49:16;;;;;;;5.63;4.73;;;1.70;99.90;;;;;;5048731;28;20436;-78
2023/02/27 02:51:59;;;;;;;6.77;5.00;;;1.60;99.90;;;;;;5013563;28;20409;-78
2023/02/27 02:54:37;;;;;;;7.10;5.20;;;1.70;99.90;;;;;;5028725;28;20424;-78
2023/02/27 02:57:26;;;;;;;7.90;5.17;;;1.60;99.90;;;;;;5010901;28;20528;-78
2023/02/27 03:00:01;;;;;;;5.50;4.47;;;1.70;99.90;;;;;;5028548;28;20735;-78
2023/02/27 03:02:31;;;;;;;10.47;5.67;;;1.60;99.90;;;;;;5028895;28;20449;-78
2023/02/27 03:05:11;;;;;;;6.10;4.80;;;1.70;99.90;;;;;;5028634;28;20427;-78
2023/02/27 03:07:51;;;;;;;5.40;4.60;;;1.60;99.90;;;;;;5028555;28;20461;-78
2023/02/27 03:10:26;;;;;;;6.53;4.80;;;1.60;99.90;;;;;;5028372;28;20413;-78
2023/02/27 03:12:58;;;;;;;6.50;4.80;;;1.60;99.90;;;;;;5029000;28;20964;-78
2023/02/27 03:15:32;;;;;;;6.80;4.70;;;1.60;99.90;;;;;;5010308;28;20504;-78
2023/02/27 03:18:05;;;;;;;6.83;5.10;;;1.70;99.90;;;;;;5028456;28;21007;-78
2023/02/27 03:20:40;;;;;;;6.03;4.40;;;1.70;99.90;;;;;;5010491;28;20409;-78
2023/02/27 03:23:15;;;;;;;5.53;5.00;;;1.60;99.90;;;;;;5010720;28;20424;-78
2023/02/27 03:25:45;;;;;;;6.13;4.90;;;1.70;99.90;;;;;;4994249;28;20420;-78
2023/02/27 03:28:16;;;;;;;5.40;4.90;;;1.60;99.90;;;;;;5028296;28;20496;-78
2023/02/27 03:31:09;;;;;;;5.73;4.90;;;1.60;99.90;;;;;;5010697;28;20909;-78
2023/02/27 03:33:42;;;;;;;6.67;5.00;;;1.60;99.90;;;;;;5028341;28;20747;-78
2023/02/27 03:36:28;;;;;;;5.50;5.00;;;1.60;99.90;;;;;;5010736;28;20956;-78
2023/02/27 03:39:04;;;;;;;5.17;4.67;;;1.60;99.90;;;;;;5028623;28;20429;-78
2023/02/27 03:42:02;;;;;;;6.40;4.80;;;1.50;99.90;;;;;;5048268;28;20447;-78
2023/02/27 03:44:31;;;;;;;6.20;5.10;;;1.70;99.90;;;;;;5030378;28;20748;-79
2023/02/27 03:46:57;;;;;;;4.60;4.20;;;1.50;99.90;;;;;;5030274;28;20464;-78
2023/02/27 03:49:23;;;;;;;9.17;5.00;;;1.50;99.90;;;;;;5048052;28;20927;-78
2023/02/27 03:51:49;;;;;;;5.60;4.87;;;1.60;99.90;;;;;;5030181;28;20413;-78
2023/02/27 03:54:33;;;;;;;11.77;4.03;;;1.50;99.90;;;;;;5028209;28;20225;-79
2023/02/27 03:57:03;;;;;;;5.57;4.87;;;1.50;99.90;;;;;;5010557;28;20202;-79
2023/02/27 03:59:31;;;;;;;4.97;4.47;;;1.40;99.90;;;;;;5010508;28;20452;-78
2023/02/27 04:01:58;;;;;;;5.43;4.87;;;1.50;99.90;;;;;;5010808;28;20925;-78
2023/02/27 04:04:24;;;;;;;9.60;4.73;;;1.50;99.90;;;;;;5010556;28;20527;-78
2023/02/27 04:09:58;;;;;;;4.60;4.20;;;1.40;99.90;;;;;;5028143;28;20418;-78
2023/02/27 04:12:45;;;;;;;5.03;3.63;;;1.50;99.90;;;;;;5010647;28;20417;-78
2023/02/27 04:15:29;;;;;;;6.30;4.40;;;1.60;99.90;;;;;;5028429;28;20788;-79
2023/02/27 04:18:09;;;;;;;5.30;4.03;;;1.50;99.90;;;;;;5010584;28;20956;-78
2023/02/27 04:20:38;;;;;;;5.07;4.50;;;1.40;99.90;;;;;;5028290;28;20980;-79
2023/02/27 04:23:23;;;;;;;7.37;4.33;;;1.50;99.90;;;;;;5010286;28;20417;-78
2023/02/27 04:26:03;;;;;;;5.53;4.20;;;1.50;99.90;;;;;;5012050;28;20455;-78
2023/02/27 04:28:40;;;;;;;5.17;4.20;;;1.50;99.90;;;;;;5032362;28;20417;-78
2023/02/27 04:31:24;;;;;;;5.13;4.13;;;1.50;99.90;;;;;;5031659;28;20898;-78
2023/02/27 04:34:00;;;;;;;5.60;4.53;;;1.50;99.90;;;;;;4997400;28;20774;-78
2023/02/27 04:37:05;;;;;;;5.03;4.10;;;1.50;99.90;;;;;;5030920;28;20505;-79
2023/02/27 04:39:41;;;;;;;6.00;4.40;;;1.50;99.90;;;;;;4973836;28;20418;-80
2023/02/27 04:42:14;;;;;;;5.27;4.77;;;1.50;99.90;;;;;;5011898;28;20417;-79
2023/02/27 04:44:41;;;;;;;4.40;4.00;;;1.30;99.90;;;;;;5011502;28;20418;-79
2023/02/27 04:47:10;;;;;;;7.33;4.70;;;1.40;99.90;;;;;;4993769;28;20465;-79
2023/02/27 04:49:47;;;;;;;4.70;3.83;;;1.20;99.90;;;;;;5011234;28;20418;-80
2023/02/27 04:52:26;;;;;;;5.90;4.40;;;1.50;99.90;;;;;;5013673;28;20417;-80
2023/02/27 04:55:10;;;;;;;4.80;4.30;;;1.20;99.90;;;;;;5013621;28;20925;-78
2023/02/27 04:57:48;;;;;;;6.30;4.70;;;1.30;99.90;;;;;;5017111;28;20988;-78
2023/02/27 05:00:17;;;;;;;6.83;4.70;;;1.30;99.90;;;;;;5032358;28;20437;-79
2023/02/27 05:02:49;;;;;;;5.47;4.40;;;1.20;99.90;;;;;;5014375;28;20429;-80
2023/02/27 05:05:21;;;;;;;6.03;4.30;;;1.40;99.90;;;;;;5031353;28;20926;-77
2023/02/27 05:07:56;;;;;;;6.80;4.73;;;1.30;99.90;;;;;;5031127;28;20460;-78
2023/02/27 05:10:52;;;;;;;6.37;4.60;;;1.20;99.90;;;;;;5031001;28;20421;-81
2023/02/27 05:13:29;;;;;;;6.67;4.40;;;1.20;99.90;;;;;;5030743;28;20830;-80
2023/02/27 05:16:07;;;;;;;5.90;4.57;;;1.20;99.90;;;;;;5031113;28;20479;-79
2023/02/27 05:18:33;;;;;;;7.10;4.90;;;1.30;99.90;;;;;;5012972;28;20419;-79
2023/02/27 05:20:58;;;;;;;6.63;4.77;;;1.10;99.90;;;;;;5030672;28;20418;-79
2023/02/27 05:24:08;;;;;;;5.40;4.30;;;1.20;99.90;;;;;;5012745;28;20186;-79
2023/02/27 05:26:55;;;;;;;5.50;4.40;;;1.30;99.90;;;;;;4990283;28;20253;-78
2023/02/27 05:29:32;;;;;;;5.00;4.40;;;1.10;99.90;;;;;;5030560;28;20409;-80
2023/02/27 05:32:27;;;;;;;5.30;4.50;;;1.10;99.90;;;;;;5012791;28;20451;-78
2023/02/27 05:35:03;;;;;;;5.13;4.63;;;1.00;99.90;;;;;;5012461;28;20409;-81
2023/02/27 05:37:44;;;;;;;5.50;5.00;;;1.10;99.90;;;;;;5029576;28;20983;-79
2023/02/27 05:40:14;;;;;;;6.00;5.20;;;1.20;99.90;;;;;;5012498;28;20420;-79
2023/02/27 05:42:46;;;;;;;7.90;5.17;;;1.20;99.90;;;;;;5018972;28;20436;-77
2023/02/27 05:45:25;;;;;;;5.90;4.67;;;0.90;99.90;;;;;;4994821;28;20417;-77
2023/02/27 05:48:07;;;;;;;5.37;4.63;;;1.00;99.90;;;;;;5020170;28;20473;-76
2023/02/27 05:50:36;;;;;;;5.30;4.80;;;0.90;99.90;;;;;;5028534;28;20424;-76
2023/02/27 05:53:05;;;;;;;5.03;4.53;;;1.00;99.90;;;;;;5018010;28;20433;-78
2023/02/27 05:55:41;;;;;;;6.77;5.00;;;1.10;99.90;;;;;;5030071;28;20409;-80
2023/02/27 05:58:28;;;;;;;5.00;4.50;;;0.80;99.90;;;;;;5029782;28;20432;-80
2023/02/27 06:00:57;;;;;;;6.87;4.73;;;1.00;99.90;;;;;;5012059;28;21012;-79
2023/02/27 06:03:25;;;;;;;7.03;4.77;;;1.10;99.90;;;;;;5029589;28;20925;-78
2023/02/27 06:05:52;;;;;;;5.80;4.80;;;1.10;99.90;;;;;;4995635;28;20422;-79
2023/02/27 06:08:20;;;;;;;7.50;4.93;;;1.00;99.90;;;;;;5029553;28;20417;-79
2023/02/27 06:10:47;;;;;;;5.67;5.10;;;0.90;99.90;;;;;;5011838;28;20425;-79
2023/02/27 06:13:13;;;;;;;5.73;4.80;;;0.90;99.90;;;;;;5029486;28;20471;-79
2023/02/27 06:15:38;;;;;;;8.37;5.20;;;1.00;99.90;;;;;;4995737;28;20421;-79
2023/02/27 06:18:04;;;;;;;5.80;5.20;;;1.00;99.90;;;;;;4996224;28;20206;-79
2023/02/27 06:20:30;;;;;;;5.90;4.67;;;1.10;99.90;;;;;;5012576;28;20338;-80
2023/02/27 06:22:58;;;;;;;12.03;5.80;;;1.00;99.90;;;;;;5012560;28;20185;-79
2023/02/27 06:25:24;;;;;;;5.43;4.30;;;1.00;99.90;;;;;;5030169;28;20198;-79
2023/02/27 06:27:49;;;;;;;6.47;4.90;;;1.00;99.90;;;;;;4995700;28;20819;-79
2023/02/27 06:30:15;;;;;;;5.57;4.83;;;0.90;99.90;;;;;;5012229;28;20178;-79
2023/02/27 06:32:41;;;;;;;7.17;5.17;;;0.90;99.90;;;;;;5029859;28;20611;-80
2023/02/27 06:35:07;;;;;;;8.13;5.40;;;0.90;99.90;;;;;;5011627;28;20418;-79
2023/02/27 06:37:36;;;;;;;6.47;5.57;;;1.00;99.90;;;;;;4990851;28;20202;-79
2023/02/27 06:40:04;;;;;;;8.27;6.27;;;1.00;99.90;;;;;;5004687;28;20429;-79
2023/02/27 06:42:30;;;;;;;6.73;5.30;;;0.90;99.90;;;;;;5043108;28;20482;-80
2023/02/27 06:44:56;;;;;;;6.37;5.70;;;0.90;99.90;;;;;;5029339;28;20433;-80
2023/02/27 06:47:22;;;;;;;7.93;5.80;;;0.80;99.90;;;;;;5029635;28;20469;-79
2023/02/27 06:49:48;;;;;;;6.03;5.43;;;1.00;99.90;;;;;;5027586;28;20989;-80
2023/02/27 06:52:13;;;;;;;7.37;5.53;;;1.00;99.90;;;;;;5016079;28;20240;-81
2023/02/27 06:54:39;;;;;;;7.00;5.80;;;0.90;99.90;;;;;;5029157;28;20190;-79
2023/02/27 06:57:05;;;;;;;6.43;5.10;;;0.80;99.90;;;;;;5021264;28;20307;-80
2023/02/27 06:59:31;;;;;;;9.03;5.40;;;0.90;99.90;;;;;;5011068;28;20267;-79
2023/02/27 07:01:58;;;;;;;5.70;5.20;;;1.00;99.90;;;;;;5029889;28;20417;-80
2023/02/27 07:04:23;;;;;;;7.03;4.80;;;1.00;99.90;;;;;;5028871;28;20448;-79
2023/02/27 07:06:49;;;;;;;7.30;5.67;;;0.80;99.90;;;;;;5023112;28;20460;-79
2023/02/27 07:09:15;;;;;;;6.57;5.10;;;0.80;99.90;;;;;;5027555;28;20851;-79
2023/02/27 07:11:41;;;;;;;8.23;5.60;;;1.00;99.90;;;;;;5027946;28;20508;-78
2023/02/27 07:14:07;;;;;;;8.77;5.60;;;1.00;99.90;;;;;;5019684;28;20186;-79
2023/02/27 07:16:32;;;;;;;6.50;5.20;;;1.00;99.90;;;;;;5026807;28;20213;-79
2023/02/27 07:18:58;;;;;;;9.20;5.77;;;1.20;99.90;;;;;;5025077;28;20282;-79
2023/02/27 07:21:24;;;;;;;8.20;5.77;;;1.00;99.90;;;;;;5020017;28;20194;-79
2023/02/27 07:23:50;;;;;;;8.60;6.20;;;1.10;99.90;;;;;;5013578;28;20186;-79
2023/02/27 07:26:15;;;;;;;7.03;6.10;;;1.30;99.90;;;;;;5028141;28;20888;-79
2023/02/27 07:28:41;;;;;;;9.90;5.87;;;1.10;99.90;;;;;;5029543;28;20669;-79
2023/02/27 07:31:07;;;;;;;7.50;5.50;;;1.20;99.90;;;;;;5012668;28;20597;-80
2023/02/27 07:33:32;;;;;;;9.30;5.90;;;1.30;99.90;;;;;;5029347;28;20542;-80
2023/02/27 07:35:59;;;;;;;6.67;5.37;;;1.10;99.90;;;;;;5012562;28;20221;-79
2023/02/27 07:38:24;;;;;;;6.50;5.20;;;1.50;99.90;;;;;;5044173;28;20174;-80
2023/02/27 07:40:52;;;;;;;6.73;5.17;;;1.30;99.90;;;;;;5019792;28;20422;-79
2023/02/27 07:43:17;;;;;;;6.47;5.83;;;1.60;99.90;;;;;;5000161;28;20193;-80
2023/02/27 07:45:44;;;;;;;12.97;6.10;;;1.60;99.90;;;;;;5030256;28;20424;-80
2023/02/27 07:48:10;;;;;;;7.80;6.27;;;1.80;99.90;;;;;;5029011;28;20210;-80
2023/02/27 07:50:36;;;;;;;8.70;6.20;;;2.00;99.90;;;;;;5030028;28;20424;-79
2023/02/27 07:53:02;;;;;;;8.03;6.37;;;2.10;99.90;;;;;;5030468;28;20413;-81
2023/02/27 07:55:27;;;;;;;7.73;6.07;;;2.40;99.90;;;;;;5012396;28;20811;-80
2023/02/27 07:57:53;;;;;;;6.30;5.70;;;2.60;99.90;;;;;;5030166;28;20260;-80
2023/02/27 08:00:19;;;;;;;6.33;5.63;;;2.60;99.90;;;;;;5012976;28;20190;-79
2023/02/27 08:02:45;;;;;;;7.73;5.53;;;3.00;99.90;;;;;;5016223;28;20186;-80
2023/02/27 08:05:10;;;;;;;7.97;5.53;;;3.20;99.90;;;;;;5016188;28;20413;-79
2023/02/27 08:07:36;;;;;;;9.07;5.43;;;3.40;99.90;;;;;;5016250;28;20218;-79
2023/02/27 08:10:05;;;;;;;7.03;5.00;;;3.70;99.90;;;;;;5016051;28;20185;-79
2023/02/27 08:12:31;;;;;;;6.20;5.33;;;3.70;99.90;;;;;;5015956;28;20187;-79
2023/02/27 08:14:56;;;;;;;6.03;4.57;;;3.70;99.90;;;;;;5015785;28;20886;-80
2023/02/27 08:17:22;;;;;;;5.47;4.70;;;4.00;99.90;;;;;;5033801;28;20801;-79
2023/02/27 08:19:48;;;;;;;7.70;5.37;;;4.40;99.90;;;;;;5010198;28;20183;-80
2023/02/27 08:22:13;;;;;;;6.17;5.53;;;4.50;99.90;;;;;;4996385;28;20187;-80
2023/02/27 08:24:39;;;;;;;9.00;5.20;;;4.60;99.90;;;;;;5013913;28;20179;-79
2023/02/27 08:27:06;;;;;;;7.63;5.10;;;4.90;99.90;;;;;;4995677;28;20214;-78
2023/02/27 08:29:31;;;;;;;7.90;5.37;;;5.00;99.90;;;;;;5012654;28;20183;-80
2023/02/27 08:31:58;;;;;;;9.10;6.17;;;5.10;99.90;;;;;;5013848;28;20756;-80
2023/02/27 08:34:24;;;;;;;6.23;5.10;;;5.30;99.90;;;;;;4996372;28;20187;-80
2023/02/27 08:36:51;;;;;;;5.63;5.03;;;5.50;99.90;;;;;;4998425;28;20504;-81
2023/02/27 08:39:17;;;;;;;7.77;5.00;;;5.50;99.90;;;;;;5036683;28;20518;-79
2023/02/27 08:41:43;;;;;;;10.47;6.10;;;5.80;99.90;;;;;;5037067;28;20426;-80
2023/02/27 08:44:11;;;;;;;9.37;5.30;;;5.80;99.90;;;;;;5054799;28;20469;-81
2023/02/27 08:46:37;;;;;;;6.50;4.57;;;6.10;99.90;;;;;;5036464;28;20538;-80
2023/02/27 08:49:03;;;;;;;6.40;5.17;;;5.90;99.90;;;;;;5036380;28;20424;-79
2023/02/27 08:51:29;;;;;;;5.83;4.60;;;6.30;99.90;;;;;;4996623;28;20440;-79
2023/02/27 08:53:57;;;;;;;5.60;4.87;;;6.30;99.90;;;;;;5005678;28;20454;-77
2023/02/27 08:56:24;;;;;;;7.50;4.97;;;6.40;99.90;;;;;;4983128;28;20547;-77
2023/02/27 08:58:51;;;;;;;5.53;4.20;;;6.50;99.90;;;;;;5020656;28;20803;-80
2023/02/27 09:01:18;;;;;;;5.10;4.60;;;6.20;99.90;;;;;;4996827;28;20422;-80
2023/02/27 09:03:43;;;;;;;4.90;4.40;;;6.80;99.90;;;;;;4979493;28;20500;-80
2023/02/27 09:06:09;;;;;;;5.90;4.10;;;6.40;99.90;;;;;;4998762;28;20472;-81
2023/02/27 09:08:35;;;;;;;4.33;4.03;;;6.70;99.90;;;;;;4999445;28;20183;-80
2023/02/27 09:11:01;;;;;;;8.00;4.93;;;6.80;99.90;;;;;;4996534;28;20182;-81
2023/02/27 09:13:28;;;;;;;5.37;4.50;;;6.80;99.90;;;;;;4995538;28;20213;-80
2023/02/27 09:15:54;;;;;;;7.30;4.83;;;6.90;99.90;;;;;;4996158;28;20430;-80
2023/02/27 09:18:21;;;;;;;9.20;4.87;;;7.00;99.90;;;;;;5014600;28;20422;-79
2023/02/27 09:20:49;;;;;;;7.13;4.70;;;7.10;99.90;;;;;;4980843;28;20836;-81
2023/02/27 09:23:15;;;;;;;6.50;5.00;;;7.10;99.90;;;;;;5014402;28;20426;-80
2023/02/27 09:25:41;;;;;;;7.97;4.33;;;7.20;99.80;;;;;;4997607;28;20429;-80
2023/02/27 09:28:07;;;;;;;6.83;4.90;;;7.30;99.40;;;;;;4982356;28;20246;-81
2023/02/27 09:30:33;;;;;;;13.60;3.90;;;7.40;99.80;;;;;;5006614;28;20183;-80
2023/02/27 09:32:58;;;;;;;4.70;3.70;;;7.50;99.90;;;;;;5003859;28;20414;-80
2023/02/27 09:35:24;;;;;;;5.93;3.67;;;7.60;99.60;;;;;;5002347;28;20436;-80
2023/02/27 09:37:50;;;;;;;8.80;3.90;;;7.70;99.10;;;;;;5056176;28;20208;-81
2023/02/27 09:40:43;;;;;;;4.50;3.40;;;7.80;99.40;;;;;;5037067;28;20208;-80
2023/02/27 09:43:34;;;;;;;6.93;3.80;;;7.90;98.90;;;;;;5014521;28;20817;-80
2023/02/27 09:46:00;;;;;;;5.30;3.60;;;8.00;98.60;;;;;;5033672;28;20901;-81
2023/02/27 09:48:29;;;;;;;4.10;3.40;;;8.10;98.30;;;;;;5000722;28;20432;-79
2023/02/27 09:50:55;;;;;;;4.40;3.40;;;8.10;98.20;;;;;;5000415;28;20500;-80
2023/02/27 09:53:37;;;;;;;4.00;3.10;;;8.10;98.20;;;;;;5017528;28;20485;-82
2023/02/27 09:56:31;;;;;;;3.57;2.93;;;8.20;98.00;;;;;;5000532;28;20429;-81
2023/02/27 09:59:23;;;;;;;5.00;3.40;;;8.20;97.60;;;;;;4984805;28;21089;-82
2023/02/27 10:02:43;;;;;;;3.73;2.80;;;8.30;98.00;;;;;;4986922;28;20426;-79
2023/02/27 10:05:25;;;;;;;5.60;2.57;;;8.40;97.90;;;;;;4934907;29;20433;-80
2023/02/27 10:08:21;;;;;;;4.17;2.67;;;8.60;97.10;;;;;;4934139;29;21071;-82
2023/02/27 10:11:02;;;;;;;3.90;2.30;;;8.60;97.20;;;;;;4998011;28;21264;-80
2023/02/27 10:13:46;;;;;;;3.87;2.47;;;8.40;96.80;;;;;;5012754;28;20429;-80
2023/02/27 10:16:15;;;;;;;2.80;2.50;;;8.30;96.80;;;;;;4980697;28;20448;-80
2023/02/27 10:19:16;;;;;;;3.37;2.50;;;8.00;96.20;;;;;;5021430;28;20425;-79
2023/02/27 10:21:50;;;;;;;3.07;2.40;;;8.00;96.80;;;;;;5020350;28;20459;-81
2023/02/27 10:24:28;;;;;;;3.80;2.63;;;7.90;97.00;;;;;;5009734;28;20523;-80
2023/02/27 10:26:57;;;;;;;3.33;2.97;;;8.00;97.20;;;;;;5023498;28;20610;-80
2023/02/27 10:29:26;;;;;;;2.73;2.40;;;7.90;96.00;;;;;;5034141;28;20428;-83
2023/02/27 10:32:03;;;;;;;3.10;2.17;;;7.90;96.70;;;;;;4998323;28;20440;-82
2023/02/27 10:34:31;;;;;;;4.60;2.23;;;7.90;96.90;;;;;;5002675;28;20417;-80
2023/02/27 10:37:01;;;;;;;3.17;2.13;;;7.90;96.50;;;;;;5024345;28;20539;-80
2023/02/27 10:39:28;;;;;;;2.33;2.13;;;7.80;96.50;;;;;;5029143;28;20437;-81
2023/02/27 10:41:59;;;;;;;4.43;2.33;;;7.80;96.90;;;;;;5033886;28;20457;-80
2023/02/27 10:44:25;;;;;;;3.40;2.80;;;7.70;96.70;;;;;;5012587;28;20429;-80
2023/02/27 10:46:53;;;;;;;2.70;2.27;;;7.70;96.80;;;;;;5015275;28;20468;-79
2023/02/27 10:49:20;;;;;;;2.27;2.07;;;7.50;96.60;;;;;;5015449;28;20182;-80
2023/02/27 10:52:12;;;;;;;6.73;2.80;;;7.50;97.00;;;;;;5015143;28;20425;-79
2023/02/27 10:54:38;;;;;;;3.77;2.77;;;7.30;96.30;;;;;;5030480;28;20533;-78
2023/02/27 10:57:25;;;;;;;3.07;2.77;;;7.30;97.10;;;;;;5032131;28;20961;-82
2023/02/27 10:59:57;;;;;;;4.17;3.07;;;7.30;97.10;;;;;;5005909;28;20445;-77
2023/02/27 11:02:39;;;;;;;3.60;2.90;;;7.00;96.80;;;;;;5006681;28;20816;-78
2023/02/27 11:05:17;;;;;;;5.43;2.97;;;7.20;98.20;;;;;;5022942;28;20437;-82
2023/02/27 11:07:43;;;;;;;6.37;3.13;;;7.10;97.80;;;;;;5024090;28;20481;-81
2023/02/27 11:10:12;;;;;;;4.90;3.03;;;7.00;97.80;;;;;;5032002;28;20479;-79
2023/02/27 11:12:40;;;;;;;10.13;3.00;;;7.10;98.20;;;;;;5032492;28;20475;-78
2023/02/27 11:15:30;;;;;;;5.97;3.10;;;7.20;98.10;;;;;;5030522;28;21089;-78
2023/02/27 11:18:18;;;;;;;3.40;3.10;;;7.10;98.00;;;;;;5028259;28;20444;-78
2023/02/27 11:20:49;;;;;;;6.50;3.17;;;7.10;97.90;;;;;;5031147;28;20444;-78
2023/02/27 11:23:17;;;;;;;5.33;2.57;;;7.20;98.40;;;;;;5021218;28;20421;-80
2023/02/27 11:25:43;;;;;;;3.53;2.90;;;7.10;98.00;;;;;;4997786;28;20421;-79
2023/02/27 11:28:11;;;;;;;3.80;2.70;;;7.30;98.20;;;;;;4995560;28;20548;-78
2023/02/27 11:30:37;;;;;;;4.03;3.10;;;7.30;97.50;;;;;;5013185;28;20425;-81
2023/02/27 11:33:03;;;;;;;3.57;2.80;;;7.40;97.80;;;;;;5021392;28;20489;-79
2023/02/27 11:35:38;;;;;;;5.27;2.70;;;7.40;97.90;;;;;;5034236;28;20193;-81
2023/02/27 11:38:19;;;;;;;3.80;2.90;;;7.50;97.20;;;;;;5034481;28;20296;-79
2023/02/27 11:40:55;;;;;;;5.87;3.00;;;7.50;96.90;;;;;;5043767;28;20761;-80
2023/02/27 11:43:35;;;;;;;4.23;2.93;;;7.50;97.10;;;;;;5041537;28;20419;-80
2023/02/27 11:46:06;;;;;;;5.37;2.90;;;7.50;97.00;;;;;;5060072;28;20669;-79
2023/02/27 11:48:45;;;;;;;3.17;2.60;;;7.60;97.50;;;;;;5059090;28;20499;-78
2023/02/27 11:51:25;;;;;;;4.03;2.70;;;7.70;97.50;;;;;;5011162;28;20427;-81
2023/02/27 11:54:09;;;;;;;4.97;3.00;;;7.80;97.30;;;;;;5021289;28;21111;-81
2023/02/27 11:56:46;;;;;;;3.50;2.90;;;7.90;97.30;;;;;;5005225;28;20448;-80
2023/02/27 11:59:21;;;;;;;6.17;2.43;;;8.00;96.80;;;;;;5021732;28;20440;-80
2023/02/27 12:01:58;;;;;;;4.13;2.40;;;7.90;95.60;;;;;;5005299;28;20424;-79
2023/02/27 12:04:45;;;;;;;3.30;2.23;;;7.90;95.80;;;;;;5021335;28;20428;-81
2023/02/27 12:07:28;;;;;;;2.60;1.87;;;7.90;95.90;;;;;;5004673;28;20468;-81
2023/02/27 12:09:56;;;;;;;3.20;2.43;;;8.00;95.70;;;;;;5038567;28;20432;-77
2023/02/27 12:12:31;;;;;;;2.97;2.40;;;8.00;94.70;;;;;;5020846;28;20417;-79
2023/02/27 12:15:04;;;;;;;5.40;2.70;;;7.90;94.90;;;;;;5020908;28;20405;-81
2023/02/27 12:17:39;;;;;;;3.27;2.40;;;8.00;95.00;;;;;;5004334;28;20448;-78
2023/02/27 12:20:26;;;;;;;3.07;2.17;;;7.90;95.40;;;;;;5020852;28;20463;-80
2023/02/27 12:22:53;;;;;;;3.50;2.23;;;7.90;95.30;;;;;;5039189;28;20781;-78
2023/02/27 12:25:47;;;;;;;4.33;2.77;;;7.80;94.90;;;;;;5039561;28;20508;-80
2023/02/27 12:28:51;;;;;;;3.13;2.93;;;7.80;95.10;;;;;;5021576;28;20704;-80
2023/02/27 12:31:19;;;;;;;3.57;2.87;;;7.90;95.70;;;;;;5039378;28;20416;-78
2023/02/27 12:34:15;;;;;;;3.00;2.70;;;7.90;95.30;;;;;;5021531;28;20427;-80
2023/02/27 12:36:41;;;;;;;3.43;2.67;;;8.00;95.80;;;;;;5020782;28;20455;-78
2023/02/27 12:39:17;;;;;;;4.40;2.80;;;8.00;95.30;;;;;;5001172;28;20414;-78
2023/02/27 12:41:50;;;;;;;3.53;2.30;;;7.80;94.30;;;;;;5001771;28;20390;-77
2023/02/27 12:44:23;;;;;;;2.70;2.07;;;7.70;94.00;;;;;;5019638;28;20410;-80
2023/02/27 12:47:04;;;;;;;2.47;2.27;;;7.60;94.30;;;;;;4999945;28;20461;-79
2023/02/27 12:49:35;;;;;;;3.70;2.10;;;7.50;94.50;;;;;;4998096;28;20418;-81
2023/02/27 12:52:15;;;;;;;4.00;2.67;;;7.40;94.60;;;;;;5014799;28;20422;-80
2023/02/27 12:55:13;;;;;;;2.63;1.97;;;7.30;94.60;;;;;;4981606;28;20955;-76
2023/02/27 12:57:48;;;;;;;3.73;2.03;;;7.30;94.70;;;;;;4991165;28;20528;-79
2023/02/27 13:00:20;;;;;;;4.57;2.37;;;7.40;94.10;;;;;;5013700;28;20901;-80
2023/02/27 13:02:54;;;;;;;3.17;2.23;;;7.20;93.90;;;;;;5015035;28;20556;-79
2023/02/27 13:05:31;;;;;;;2.37;2.17;;;7.10;94.50;;;;;;4997098;28;20417;-81
2023/02/27 13:08:24;;;;;;;2.87;2.17;;;7.20;95.10;;;;;;4997395;28;20477;-77
2023/02/27 13:10:58;;;;;;;3.83;2.00;;;7.10;95.10;;;;;;4997054;28;20421;-79
2023/02/27 13:13:41;;;;;;;2.50;2.03;;;7.30;96.10;;;;;;4997093;28;20425;-80
2023/02/27 13:16:44;;;;;;;4.13;2.00;;;7.40;94.80;;;;;;5014983;28;20434;-81
2023/02/27 13:19:43;;;;;;;1.83;1.70;;;7.40;94.60;;;;;;4988154;28;20414;-79
2023/02/27 13:22:12;;;;;;;2.37;2.10;;;7.50;94.70;;;;;;4980962;28;20497;-81
2023/02/27 13:24:44;;;;;;;2.90;2.60;;;7.60;94.80;;;;;;4980324;28;20418;-78
2023/02/27 13:27:21;;;;;;;3.07;2.80;;;7.70;94.90;;;;;;5013437;28;20508;-78
2023/02/27 13:30:01;;;;;;;3.20;2.87;;;7.60;95.10;;;;;;5014133;28;20471;-79